Time;durP1;ratioP1;P1;durP2;ratioP2;P2;SDS_P1;SDS_P2;PMS_P1;PMS_P2;Temp;Humidity;BMP_temperature;BMP_pressure;BME280_temperature;BME280_humidity;BME280_pressure;Samples;Min_cycle;Max_cycle;Signal;HPM_P1;HPM_P2
2021/11/23 00:00:10;;;;;;;;;;;7.60;99.90;8.20;99762.00;;;;346983;28;91021;-88
2021/11/23 00:00:21;;;;;;;;;;;7.60;99.90;8.20;99759.00;;;;346591;28;82476;-87
2021/11/23 00:00:34;;;;;;;;;;;7.70;99.90;8.20;99766.00;;;;344294;28;91147;-88
2021/11/23 00:00:48;;;;;;;;;;;7.70;99.90;8.20;99768.00;;;;345876;28;82576;-88
2021/11/23 00:00:59;;;;;;;;;;;7.70;99.90;8.10;99772.00;;;;345557;28;90494;-88
2021/11/23 00:01:11;;;;;;;;;;;7.70;99.90;8.20;99765.00;;;;346067;28;83529;-88
2021/11/23 00:01:23;;;;;;;;;;;7.70;99.90;8.20;99768.00;;;;344258;28;89723;-87
2021/11/23 00:01:35;;;;;;;;;;;7.70;99.90;8.20;99770.00;;;;343119;28;83606;-87
2021/11/23 00:01:47;;;;;;;;;;;7.60;99.90;8.20;99770.00;;;;342780;28;89309;-88
2021/11/23 00:02:16;;;;;;;;;;;7.70;99.90;8.20;99770.00;;;;347185;28;83510;-88
2021/11/23 00:02:29;;;;;;;;;;;7.70;99.90;8.20;99768.00;;;;345715;28;89527;-87
2021/11/23 00:02:42;;;;;;;;;;;7.70;99.90;8.30;99770.00;;;;344668;28;82411;-87
2021/11/23 00:02:54;;;;;;;;;;;7.70;99.90;8.20;99768.00;;;;344674;28;91087;-87
2021/11/23 00:03:06;;;;;;;;;;;7.70;99.90;8.20;99774.00;;;;344394;28;83663;-87
2021/11/23 00:03:18;;;;;;;;;;;7.70;99.90;8.20;99775.00;;;;345559;28;90079;-88
2021/11/23 00:03:30;;;;;;;;;;;7.70;99.90;8.10;99772.00;;;;347228;28;83462;-88
2021/11/23 00:03:42;;;;;;;;;;;7.70;99.90;8.10;99768.00;;;;345620;28;86614;-87
2021/11/23 00:03:54;;;;;;;;;;;7.70;99.90;8.00;99770.00;;;;348009;27;83334;-88
2021/11/23 00:04:06;;;;;;;;;;;7.70;99.90;8.10;99762.00;;;;347055;27;87969;-87
2021/11/23 00:04:17;;;;;;;;;;;7.70;99.90;8.10;99764.00;;;;344708;28;82565;-87
2021/11/23 00:04:29;;;;;;;;;;;7.70;99.90;8.20;99763.00;;;;345437;28;90161;-87
2021/11/23 00:04:41;;;;;;;;;;;7.70;99.90;8.20;99763.00;;;;345911;28;83927;-87
2021/11/23 00:04:53;;;;;;;;;;;7.70;99.90;8.10;99761.00;;;;344155;28;91638;-87
2021/11/23 00:05:05;;;;;;;;;;;7.70;99.90;8.00;99768.00;;;;344787;28;83711;-87
2021/11/23 00:05:17;;;;;;;;;;;7.70;99.90;7.90;99773.00;;;;346658;28;91502;-88
2021/11/23 00:05:29;;;;;;;;;;;7.70;99.90;7.90;99768.00;;;;345987;28;83435;-87
2021/11/23 00:05:42;;;;;;;;;;;7.60;99.90;7.90;99765.00;;;;342930;28;88405;-87
2021/11/23 00:05:54;;;;;;;;;;;7.60;99.90;8.00;99769.00;;;;344881;28;83629;-87
2021/11/23 00:06:06;;;;;;;;;;;7.60;99.90;8.00;99767.00;;;;344209;28;89470;-88
2021/11/23 00:06:18;;;;;;;;;;;7.60;99.90;8.10;99759.00;;;;347233;28;83457;-88
2021/11/23 00:06:33;;;;;;;;;;;7.60;99.90;8.10;99765.00;;;;344374;28;88279;-87
2021/11/23 00:06:45;;;;;;;;;;;7.60;99.90;8.10;99764.00;;;;344756;28;82319;-87
2021/11/23 00:06:57;;;;;;;;;;;7.60;99.90;8.10;99764.00;;;;344347;28;89147;-88
2021/11/23 00:07:08;;;;;;;;;;;7.60;99.90;8.10;99761.00;;;;347233;28;83466;-87
2021/11/23 00:07:20;;;;;;;;;;;7.60;99.90;8.00;99766.00;;;;344286;28;90382;-87
2021/11/23 00:07:32;;;;;;;;;;;7.60;99.90;8.00;99767.00;;;;344694;28;83563;-87
2021/11/23 00:07:44;;;;;;;;;;;7.60;99.90;8.00;99767.00;;;;347187;28;86849;-88
2021/11/23 00:07:55;;;;;;;;;;;7.60;99.90;8.00;99767.00;;;;344744;28;82413;-87
2021/11/23 00:08:09;;;;;;;;;;;7.60;99.90;8.00;99764.00;;;;346504;28;88455;-87
2021/11/23 00:08:21;;;;;;;;;;;7.60;99.90;8.00;99765.00;;;;346162;28;82391;-87
2021/11/23 00:08:33;;;;;;;;;;;7.60;99.90;8.00;99762.00;;;;343992;28;92183;-88
2021/11/23 00:08:45;;;;;;;;;;;7.60;99.90;8.10;99762.00;;;;344767;28;83306;-88
2021/11/23 00:08:57;;;;;;;;;;;7.60;99.90;8.10;99750.00;;;;343548;28;89040;-88
2021/11/23 00:09:08;;;;;;;;;;;7.60;99.90;8.00;99760.00;;;;347303;28;83458;-88
2021/11/23 00:09:20;;;;;;;;;;;7.60;99.90;8.00;99760.00;;;;345495;28;93154;-87
2021/11/23 00:09:32;;;;;;;;;;;7.60;99.90;8.00;99765.00;;;;345750;28;83431;-87
2021/11/23 00:09:43;;;;;;;;;;;7.60;99.90;8.10;99753.00;;;;347047;28;91144;-87
2021/11/23 00:09:55;;;;;;;;;;;7.60;99.90;8.10;99756.00;;;;345416;28;83325;-87
2021/11/23 00:10:08;;;;;;;;;;;7.60;99.90;8.10;99757.00;;;;344245;28;89111;-87
2021/11/23 00:10:20;;;;;;;;;;;7.60;99.90;8.10;99760.00;;;;343451;28;82370;-87
2021/11/23 00:10:31;;;;;;;;;;;7.60;99.90;8.00;99760.00;;;;342755;28;91668;-87
2021/11/23 00:10:44;;;;;;;;;;;7.60;99.90;7.90;99757.00;;;;343330;28;83374;-88
2021/11/23 00:10:55;;;;;;;;;;;7.60;99.90;8.00;99758.00;;;;344272;28;90326;-87
2021/11/23 00:11:08;;;;;;;;;;;7.60;99.90;8.00;99761.00;;;;344728;28;82528;-87
2021/11/23 00:11:19;;;;;;;;;;;7.60;99.90;7.90;99759.00;;;;344053;28;92548;-87
2021/11/23 00:11:31;;;;;;;;;;;7.60;99.90;8.00;99761.00;;;;343185;28;83179;-87
2021/11/23 00:11:43;;;;;;;;;;;7.60;99.90;8.00;99765.00;;;;345517;28;91356;-87
2021/11/23 00:11:54;;;;;;;;;;;7.60;99.90;8.00;99762.00;;;;341381;28;83363;-87
2021/11/23 00:12:07;;;;;;;;;;;7.60;99.90;8.00;99765.00;;;;343060;28;90526;-87
2021/11/23 00:12:20;;;;;;;;;;;7.60;99.90;8.00;99764.00;;;;344897;28;83521;-87
2021/11/23 00:12:32;;;;;;;;;;;7.60;99.90;8.00;99764.00;;;;344284;28;88601;-88
2021/11/23 00:12:44;;;;;;;;;;;7.50;99.90;8.10;99764.00;;;;344600;28;83562;-87
2021/11/23 00:13:15;;;;;;;;;;;7.60;99.90;7.90;99759.00;;;;345722;28;89048;-87
2021/11/23 00:13:27;;;;;;;;;;;7.50;99.90;8.00;99765.00;;;;343253;28;83490;-87
2021/11/23 00:13:38;;;;;;;;;;;7.50;99.90;8.00;99766.00;;;;344161;28;90583;-87
2021/11/23 00:13:50;;;;;;;;;;;7.50;99.90;7.90;99761.00;;;;344632;28;83510;-88
2021/11/23 00:14:02;;;;;;;;;;;7.60;99.90;8.00;99768.00;;;;341550;28;89130;-88
2021/11/23 00:14:14;;;;;;;;;;;7.50;99.90;8.00;99759.00;;;;345840;28;83341;-88
2021/11/23 00:14:26;;;;;;;;;;;7.50;99.90;8.10;99761.00;;;;345684;28;89676;-87
2021/11/23 00:14:38;;;;;;;;;;;7.50;99.90;8.00;99761.00;;;;344658;28;82420;-86
2021/11/23 00:14:50;;;;;;;;;;;7.50;99.90;8.10;99762.00;;;;345715;28;89022;-88
2021/11/23 00:15:02;;;;;;;;;;;7.60;99.90;8.10;99764.00;;;;345618;28;82914;-87
2021/11/23 00:15:13;;;;;;;;;;;7.60;99.90;8.10;99764.00;;;;347130;28;88825;-87
2021/11/23 00:15:25;;;;;;;;;;;7.60;99.90;8.10;99768.00;;;;347070;28;82482;-87
2021/11/23 00:15:37;;;;;;;;;;;7.60;99.90;8.00;99763.00;;;;348140;27;92860;-88
2021/11/23 00:15:49;;;;;;;;;;;7.60;99.90;7.90;99759.00;;;;347444;28;83235;-88
2021/11/23 00:16:01;;;;;;;;;;;7.60;99.90;7.90;99759.00;;;;346930;28;89160;-87
2021/11/23 00:16:13;;;;;;;;;;;7.50;99.90;8.00;99758.00;;;;345906;28;82582;-88
2021/11/23 00:16:24;;;;;;;;;;;7.50;99.90;8.10;99754.00;;;;341563;28;91547;-86
2021/11/23 00:16:36;;;;;;;;;;;7.50;99.90;8.00;99758.00;;;;344811;28;83302;-88
2021/11/23 00:16:48;;;;;;;;;;;7.60;99.90;8.00;99754.00;;;;342883;28;90154;-87
2021/11/23 00:17:00;;;;;;;;;;;7.50;99.90;8.10;99757.00;;;;343172;28;82218;-88
2021/11/23 00:17:12;;;;;;;;;;;7.60;99.90;8.10;99760.00;;;;340222;28;89067;-88
2021/11/23 00:17:24;;;;;;;;;;;7.60;99.90;8.10;99756.00;;;;347172;28;83340;-87
2021/11/23 00:17:35;;;;;;;;;;;7.60;99.90;8.20;99756.00;;;;346741;28;92852;-88
2021/11/23 00:17:47;;;;;;;;;;;7.60;99.90;8.20;99752.00;;;;345737;28;83258;-88
2021/11/23 00:17:59;;;;;;;;;;;7.60;99.90;8.00;99755.00;;;;346033;28;88048;-88
2021/11/23 00:18:12;;;;;;;;;;;7.60;99.90;8.00;99761.00;;;;344579;28;83275;-88
2021/11/23 00:18:24;;;;;;;;;;;7.60;99.90;8.00;99760.00;;;;346670;28;88417;-87
2021/11/23 00:18:36;;;;;;;;;;;7.60;99.90;7.90;99751.00;;;;345938;28;83488;-88
2021/11/23 00:18:47;;;;;;;;;;;7.60;99.90;7.90;99759.00;;;;344110;28;91878;-88
2021/11/23 00:18:59;;;;;;;;;;;7.50;99.90;8.00;99760.00;;;;347528;28;82271;-88
2021/11/23 00:19:11;;;;;;;;;;;7.60;99.90;7.90;99755.00;;;;344153;28;89043;-87
2021/11/23 00:19:23;;;;;;;;;;;7.60;99.90;8.00;99756.00;;;;343393;28;82222;-88
2021/11/23 00:19:35;;;;;;;;;;;7.60;99.90;8.00;99756.00;;;;342688;28;90046;-87
2021/11/23 00:19:47;;;;;;;;;;;7.50;99.90;8.10;99757.00;;;;340453;28;82264;-88
2021/11/23 00:19:58;;;;;;;;;;;7.50;99.90;8.00;99758.00;;;;344090;28;89095;-88
2021/11/23 00:20:10;;;;;;;;;;;7.60;99.90;8.00;99761.00;;;;347006;28;83473;-87
2021/11/23 00:20:22;;;;;;;;;;;7.50;99.90;8.00;99757.00;;;;344307;28;90505;-88
2021/11/23 00:20:34;;;;;;;;;;;7.50;99.90;8.00;99757.00;;;;347540;28;83351;-87
2021/11/23 00:20:47;;;;;;;;;;;7.50;99.90;8.00;99755.00;;;;346908;27;91555;-87
2021/11/23 00:20:59;;;;;;;;;;;7.50;99.90;8.10;99750.00;;;;346947;28;83421;-87
2021/11/23 00:21:11;;;;;;;;;;;7.50;99.90;8.00;99758.00;;;;345479;28;90391;-88
2021/11/23 00:21:22;;;;;;;;;;;7.50;99.90;7.90;99758.00;;;;343848;28;82688;-88
2021/11/23 00:21:34;;;;;;;;;;;7.50;99.90;7.90;99759.00;;;;342956;28;88986;-88
2021/11/23 00:21:46;;;;;;;;;;;7.50;99.90;7.90;99764.00;;;;343436;28;83373;-87
2021/11/23 00:21:58;;;;;;;;;;;7.50;99.90;7.90;99761.00;;;;342818;28;88609;-87
2021/11/23 00:22:10;;;;;;;;;;;7.50;99.90;7.90;99760.00;;;;344340;28;83518;-87
2021/11/23 00:22:22;;;;;;;;;;;7.50;99.90;7.90;99757.00;;;;344005;28;91145;-88
2021/11/23 00:22:34;;;;;;;;;;;7.50;99.90;8.00;99755.00;;;;344466;28;83510;-87
2021/11/23 00:22:46;;;;;;;;;;;7.50;99.90;8.00;99761.00;;;;345691;28;89077;-87
2021/11/23 00:22:58;;;;;;;;;;;7.50;99.90;8.00;99760.00;;;;343410;28;83180;-87
2021/11/23 00:23:11;;;;;;;;;;;7.50;99.90;8.00;99761.00;;;;345449;28;90600;-88
2021/11/23 00:23:22;;;;;;;;;;;7.50;99.90;8.10;99758.00;;;;346034;28;82310;-88
2021/11/23 00:23:34;;;;;;;;;;;7.50;99.90;8.00;99757.00;;;;344189;28;92531;-87
2021/11/23 00:23:46;;;;;;;;;;;7.50;99.90;7.90;99760.00;;;;344433;28;82624;-88
2021/11/23 00:23:58;;;;;;;;;;;7.50;99.90;8.00;99756.00;;;;342834;28;86602;-87
2021/11/23 00:24:10;;;;;;;;;;;7.50;99.90;8.00;99757.00;;;;344600;28;82444;-87
2021/11/23 00:24:21;;;;;;;;;;;7.50;99.90;8.00;99756.00;;;;344305;28;89592;-87
2021/11/23 00:24:33;;;;;;;;;;;7.50;99.90;7.90;99761.00;;;;346046;28;83335;-87
2021/11/23 00:24:45;;;;;;;;;;;7.50;99.90;7.90;99759.00;;;;345656;28;89198;-88
2021/11/23 00:24:58;;;;;;;;;;;7.50;99.90;7.90;99754.00;;;;346808;28;82390;-88
2021/11/23 00:25:10;;;;;;;;;;;7.50;99.90;7.90;99749.00;;;;344418;28;88107;-88
2021/11/23 00:25:21;;;;;;;;;;;7.50;99.90;8.00;99753.00;;;;344501;28;82400;-87
2021/11/23 00:25:33;;;;;;;;;;;7.50;99.90;8.00;99754.00;;;;342657;28;92648;-87
2021/11/23 00:25:45;;;;;;;;;;;7.50;99.90;8.10;99759.00;;;;344723;28;83358;-88
2021/11/23 00:25:59;;;;;;;;;;;7.50;99.90;8.00;99754.00;;;;347091;28;89320;-87
2021/11/23 00:26:11;;;;;;;;;;;7.50;99.90;7.90;99759.00;;;;348767;27;83478;-87
2021/11/23 00:26:22;;;;;;;;;;;7.50;99.90;7.90;99750.00;;;;342950;28;88406;-87
2021/11/23 00:26:34;;;;;;;;;;;7.50;99.90;7.80;99757.00;;;;347498;28;83386;-88
2021/11/23 00:26:46;;;;;;;;;;;7.50;99.90;7.80;99753.00;;;;343968;28;87792;-87
2021/11/23 00:26:58;;;;;;;;;;;7.50;99.90;7.90;99761.00;;;;345684;28;83500;-87
2021/11/23 00:27:09;;;;;;;;;;;7.50;99.90;7.80;99757.00;;;;346710;28;90053;-88
2021/11/23 00:27:21;;;;;;;;;;;7.50;99.90;7.90;99754.00;;;;345090;28;84997;-87
2021/11/23 00:27:33;;;;;;;;;;;7.50;99.90;8.00;99759.00;;;;344090;28;92471;-87
2021/11/23 00:27:45;;;;;;;;;;;7.50;99.90;7.90;99762.00;;;;346237;28;83269;-88
2021/11/23 00:27:57;;;;;;;;;;;7.50;99.90;7.90;99756.00;;;;343894;28;91692;-88
2021/11/23 00:28:10;;;;;;;;;;;7.50;99.90;7.80;99760.00;;;;344330;28;83466;-87
2021/11/23 00:28:22;;;;;;;;;;;7.50;99.90;7.90;99756.00;;;;342773;28;92078;-87
2021/11/23 00:28:34;;;;;;;;;;;7.40;99.90;7.90;99756.00;;;;343152;28;83364;-88
2021/11/23 00:28:45;;;;;;;;;;;7.40;99.90;7.80;99754.00;;;;342909;28;87972;-87
2021/11/23 00:28:57;;;;;;;;;;;7.40;99.90;7.80;99756.00;;;;343320;28;83475;-87
2021/11/23 00:29:09;;;;;;;;;;;7.40;99.90;7.90;99753.00;;;;344027;28;90706;-88
2021/11/23 00:29:21;;;;;;;;;;;7.40;99.90;7.90;99756.00;;;;343165;28;82359;-88
2021/11/23 00:29:32;;;;;;;;;;;7.40;99.90;7.80;99759.00;;;;344015;28;91555;-87
2021/11/23 00:29:44;;;;;;;;;;;7.40;99.90;7.80;99752.00;;;;344515;28;83825;-87
2021/11/23 00:29:56;;;;;;;;;;;7.40;99.90;7.80;99759.00;;;;344304;28;89797;-87
2021/11/23 00:30:08;;;;;;;;;;;7.40;99.90;7.80;99757.00;;;;346096;28;83256;-88
2021/11/23 00:30:20;;;;;;;;;;;7.40;99.90;7.90;99751.00;;;;344706;28;89565;-88
2021/11/23 00:30:32;;;;;;;;;;;7.40;99.90;7.90;99758.00;;;;343486;28;82303;-87
2021/11/23 00:30:46;;;;;;;;;;;7.40;99.90;8.00;99755.00;;;;345640;28;89249;-87
2021/11/23 00:30:58;;;;;;;;;;;7.40;99.90;8.00;99766.00;;;;345834;28;82538;-88
2021/11/23 00:31:10;;;;;;;;;;;7.40;99.90;8.00;99758.00;;;;344018;28;90332;-87
2021/11/23 00:31:21;;;;;;;;;;;7.40;99.90;7.90;99763.00;;;;346080;28;82287;-87
2021/11/23 00:31:33;;;;;;;;;;;7.40;99.90;7.90;99752.00;;;;341537;28;90161;-87
2021/11/23 00:31:45;;;;;;;;;;;7.40;99.90;7.90;99756.00;;;;345967;28;82457;-87
2021/11/23 00:31:57;;;;;;;;;;;7.40;99.90;7.90;99749.00;;;;345651;28;87684;-88
2021/11/23 00:32:09;;;;;;;;;;;7.40;99.90;7.80;99759.00;;;;344718;28;82411;-88
2021/11/23 00:32:21;;;;;;;;;;;7.40;99.90;7.80;99751.00;;;;345359;28;88746;-87
2021/11/23 00:32:32;;;;;;;;;;;7.40;99.90;7.80;99755.00;;;;346147;28;82386;-87
2021/11/23 00:32:44;;;;;;;;;;;7.40;99.90;7.80;99758.00;;;;341441;28;91770;-87
2021/11/23 00:32:57;;;;;;;;;;;7.40;99.90;7.90;99753.00;;;;346264;28;87255;-87
2021/11/23 00:33:09;;;;;;;;;;;7.40;99.90;7.90;99760.00;;;;345368;28;90412;-87
2021/11/23 00:33:21;;;;;;;;;;;7.40;99.90;7.90;99757.00;;;;345444;28;82308;-87
2021/11/23 00:33:40;;;;;;;;;;;7.40;99.90;7.80;99761.00;;;;345647;28;89122;-86
2021/11/23 00:33:52;;;;;;;;;;;7.40;99.90;7.80;99752.00;;;;343226;28;83220;-88
2021/11/23 00:34:04;;;;;;;;;;;7.40;99.90;7.90;99762.00;;;;345483;28;88289;-87
2021/11/23 00:34:15;;;;;;;;;;;7.40;99.90;7.80;99758.00;;;;345819;28;83350;-87
2021/11/23 00:34:28;;;;;;;;;;;7.40;99.90;7.90;99758.00;;;;344025;28;90178;-87
2021/11/23 00:34:40;;;;;;;;;;;7.40;99.90;7.80;99759.00;;;;344626;28;83162;-87
2021/11/23 00:34:52;;;;;;;;;;;7.40;99.90;7.90;99758.00;;;;343998;28;90111;-87
2021/11/23 00:35:04;;;;;;;;;;;7.40;99.90;7.90;99757.00;;;;344472;28;83526;-88
2021/11/23 00:35:16;;;;;;;;;;;7.40;99.90;8.00;99762.00;;;;344054;28;91373;-87
2021/11/23 00:35:28;;;;;;;;;;;7.40;99.90;7.90;99756.00;;;;345879;28;83476;-87
2021/11/23 00:35:40;;;;;;;;;;;7.40;99.90;7.90;99761.00;;;;345610;28;89469;-87
2021/11/23 00:35:55;;;;;;;;;;;7.40;99.90;7.90;99763.00;;;;345567;28;82626;-88
2021/11/23 00:36:06;;;;;;;;;;;7.40;99.90;7.90;99754.00;;;;346693;28;91498;-88
2021/11/23 00:36:18;;;;;;;;;;;7.40;99.90;7.90;99759.00;;;;347133;28;82418;-88
2021/11/23 00:36:30;;;;;;;;;;;7.40;99.90;7.90;99760.00;;;;344103;28;89835;-88
2021/11/23 00:36:42;;;;;;;;;;;7.40;99.90;7.90;99754.00;;;;345696;28;83365;-88
2021/11/23 00:36:54;;;;;;;;;;;7.40;99.90;7.80;99767.00;;;;344036;28;89597;-88
2021/11/23 00:37:07;;;;;;;;;;;7.40;99.90;7.90;99764.00;;;;344494;28;83627;-87
2021/11/23 00:37:19;;;;;;;;;;;7.40;99.90;7.90;99758.00;;;;344127;28;90266;-87
2021/11/23 00:37:31;;;;;;;;;;;7.40;99.90;7.90;99760.00;;;;343147;28;83282;-88
2021/11/23 00:37:46;;;;;;;;;;;7.40;99.90;7.90;99751.00;;;;345644;28;90550;-87
2021/11/23 00:37:59;;;;;;;;;;;7.40;99.90;7.90;99757.00;;;;344501;28;83213;-87
2021/11/23 00:38:11;;;;;;;;;;;7.40;99.90;8.00;99758.00;;;;343952;28;91193;-87
2021/11/23 00:38:23;;;;;;;;;;;7.40;99.90;7.90;99761.00;;;;347450;28;83174;-87
2021/11/23 00:38:34;;;;;;;;;;;7.40;99.90;7.80;99762.00;;;;347100;28;87846;-87
2021/11/23 00:38:47;;;;;;;;;;;7.40;99.90;7.90;99762.00;;;;342995;28;83547;-87
2021/11/23 00:38:59;;;;;;;;;;;7.40;99.90;7.90;99762.00;;;;345101;28;88125;-87
2021/11/23 00:39:11;;;;;;;;;;;7.40;99.90;7.90;99759.00;;;;344750;28;83230;-87
2021/11/23 00:39:23;;;;;;;;;;;7.40;99.90;8.00;99753.00;;;;344881;28;90518;-88
2021/11/23 00:39:34;;;;;;;;;;;7.40;99.90;8.00;99760.00;;;;343193;28;83333;-88
2021/11/23 00:39:46;;;;;;;;;;;7.40;99.90;8.00;99758.00;;;;344060;28;91558;-87
2021/11/23 00:39:58;;;;;;;;;;;7.40;99.90;7.90;99764.00;;;;345788;28;83599;-87
2021/11/23 00:40:10;;;;;;;;;;;7.50;99.90;7.90;99758.00;;;;344196;28;89550;-87
2021/11/23 00:40:22;;;;;;;;;;;7.40;99.90;7.80;99764.00;;;;344863;28;83128;-87
2021/11/23 00:40:34;;;;;;;;;;;7.50;99.90;7.90;99759.00;;;;345387;28;90923;-88
2021/11/23 00:40:45;;;;;;;;;;;7.40;99.90;7.90;99754.00;;;;347365;28;83358;-87
2021/11/23 00:40:57;;;;;;;;;;;7.40;99.90;7.90;99759.00;;;;346844;28;92055;-87
2021/11/23 00:41:09;;;;;;;;;;;7.40;99.90;8.00;99756.00;;;;344709;28;83284;-88
2021/11/23 00:41:21;;;;;;;;;;;7.40;99.90;7.90;99758.00;;;;345368;28;91929;-87
2021/11/23 00:41:33;;;;;;;;;;;7.40;99.90;8.00;99764.00;;;;343317;28;83449;-87
2021/11/23 00:41:47;;;;;;;;;;;7.40;99.90;8.00;99763.00;;;;345473;28;92703;-87
2021/11/23 00:41:59;;;;;;;;;;;7.40;99.90;8.00;99752.00;;;;342390;28;83593;-88
2021/11/23 00:42:11;;;;;;;;;;;7.40;99.90;8.00;99757.00;;;;345452;28;90312;-87
2021/11/23 00:42:24;;;;;;;;;;;7.40;99.90;8.10;99757.00;;;;347304;28;83289;-88
2021/11/23 00:42:37;;;;;;;;;;;7.50;99.90;8.10;99752.00;;;;345594;28;89061;-88
2021/11/23 00:42:49;;;;;;;;;;;7.50;99.90;8.10;99762.00;;;;347180;28;83423;-87
2021/11/23 00:43:04;;;;;;;;;;;7.50;99.90;8.00;99760.00;;;;346778;28;91490;-87
2021/11/23 00:43:16;;;;;;;;;;;7.50;99.90;7.90;99769.00;;;;344468;28;83507;-88
2021/11/23 00:43:29;;;;;;;;;;;7.50;99.90;7.90;99764.00;;;;345611;28;88627;-88
2021/11/23 00:43:41;;;;;;;;;;;7.50;99.90;8.00;99763.00;;;;348705;27;82497;-87
2021/11/23 00:43:52;;;;;;;;;;;7.50;99.90;8.00;99758.00;;;;346178;28;89120;-87
2021/11/23 00:44:04;;;;;;;;;;;7.40;99.90;7.90;99763.00;;;;344335;28;83512;-87
2021/11/23 00:44:19;;;;;;;;;;;7.50;99.90;7.90;99771.00;;;;348171;27;90393;-87
2021/11/23 00:44:31;;;;;;;;;;;7.40;99.90;8.00;99759.00;;;;344539;28;82347;-87
2021/11/23 00:44:43;;;;;;;;;;;7.40;99.90;8.00;99771.00;;;;345594;28;89115;-87
2021/11/23 00:44:56;;;;;;;;;;;7.50;99.90;8.00;99767.00;;;;347087;27;83492;-87
2021/11/23 00:45:08;;;;;;;;;;;7.50;99.90;8.10;99772.00;;;;346274;28;92080;-88
2021/11/23 00:45:20;;;;;;;;;;;7.50;99.90;8.00;99761.00;;;;343037;28;82227;-87
2021/11/23 00:45:32;;;;;;;;;;;7.50;99.90;8.00;99768.00;;;;344022;28;91444;-87
2021/11/23 00:45:44;;;;;;;;;;;7.50;99.90;7.80;99764.00;;;;344714;28;83380;-87
2021/11/23 00:45:56;;;;;;;;;;;7.50;99.90;7.80;99767.00;;;;346610;28;91285;-87
2021/11/23 00:46:08;;;;;;;;;;;7.50;99.90;7.80;99765.00;;;;345781;28;83283;-88
2021/11/23 00:46:20;;;;;;;;;;;7.40;99.90;7.70;99762.00;;;;344250;28;91760;-87
2021/11/23 00:46:35;;;;;;;;;;;7.40;99.90;7.70;99770.00;;;;344655;28;83535;-87
2021/11/23 00:46:47;;;;;;;;;;;7.40;99.90;7.70;99769.00;;;;346737;28;89366;-88
2021/11/23 00:47:04;;;;;;;;;;;7.40;99.90;7.70;99768.00;;;;344510;28;83573;-87
2021/11/23 00:47:15;;;;;;;;;;;7.30;99.90;7.80;99765.00;;;;342677;28;90226;-87
2021/11/23 00:47:27;;;;;;;;;;;7.30;99.90;7.80;99768.00;;;;347388;28;83410;-88
2021/11/23 00:47:39;;;;;;;;;;;7.30;99.90;7.80;99763.00;;;;344093;28;89726;-88
2021/11/23 00:47:51;;;;;;;;;;;7.30;99.90;7.80;99775.00;;;;344745;28;82441;-88
2021/11/23 00:48:03;;;;;;;;;;;7.30;99.90;7.70;99764.00;;;;346548;28;89353;-87
2021/11/23 00:48:15;;;;;;;;;;;7.30;99.90;7.70;99771.00;;;;344396;28;83533;-87
2021/11/23 00:48:26;;;;;;;;;;;7.30;99.90;7.80;99767.00;;;;344332;28;88136;-87
2021/11/23 00:48:38;;;;;;;;;;;7.30;99.90;7.70;99769.00;;;;343310;28;83248;-86
2021/11/23 00:48:50;;;;;;;;;;;7.30;99.90;7.80;99765.00;;;;344127;28;89232;-87
2021/11/23 00:49:02;;;;;;;;;;;7.30;99.90;7.80;99763.00;;;;345848;28;83287;-87
2021/11/23 00:49:14;;;;;;;;;;;7.30;99.90;7.70;99777.00;;;;344266;28;89655;-87
2021/11/23 00:49:26;;;;;;;;;;;7.30;99.90;7.80;99773.00;;;;343253;28;82509;-87
2021/11/23 00:49:38;;;;;;;;;;;7.30;99.90;7.80;99767.00;;;;346960;28;88375;-87
2021/11/23 00:49:50;;;;;;;;;;;7.30;99.90;7.80;99778.00;;;;345749;28;83485;-87
2021/11/23 00:50:03;;;;;;;;;;;7.30;99.90;7.80;99761.00;;;;345217;28;92824;-87
2021/11/23 00:50:15;;;;;;;;;;;7.30;99.90;7.90;99775.00;;;;347271;28;83339;-87
2021/11/23 00:50:27;;;;;;;;;;;7.30;99.90;7.90;99760.00;;;;344104;28;91739;-88
2021/11/23 00:50:39;;;;;;;;;;;7.30;99.90;7.80;99764.00;;;;343239;28;83587;-87
2021/11/23 00:50:51;;;;;;;;;;;7.30;99.90;7.80;99764.00;;;;345315;28;90503;-87
2021/11/23 00:51:03;;;;;;;;;;;7.30;99.90;7.80;99771.00;;;;343373;28;83181;-87
2021/11/23 00:51:15;;;;;;;;;;;7.30;99.90;7.80;99766.00;;;;341534;28;89152;-87
2021/11/23 00:51:27;;;;;;;;;;;7.30;99.90;7.90;99768.00;;;;343279;28;83387;-87
2021/11/23 00:51:39;;;;;;;;;;;7.30;99.90;7.90;99776.00;;;;344191;28;90452;-88
2021/11/23 00:51:51;;;;;;;;;;;7.30;99.90;7.90;99769.00;;;;345870;28;82469;-87
2021/11/23 00:52:02;;;;;;;;;;;7.30;99.90;7.90;99770.00;;;;345324;28;91556;-88
2021/11/23 00:52:15;;;;;;;;;;;7.40;99.90;7.90;99771.00;;;;345834;28;82607;-88
2021/11/23 00:52:26;;;;;;;;;;;7.30;99.90;7.90;99767.00;;;;342586;28;89097;-87
2021/11/23 00:52:38;;;;;;;;;;;7.30;99.90;7.90;99763.00;;;;344408;28;83341;-87
2021/11/23 00:52:50;;;;;;;;;;;7.40;99.90;7.90;99765.00;;;;345363;28;90575;-87
2021/11/23 00:53:03;;;;;;;;;;;7.40;99.90;7.80;99778.00;;;;341822;28;83531;-87
2021/11/23 00:53:15;;;;;;;;;;;7.40;99.90;7.90;99774.00;;;;341535;28;90117;-87
2021/11/23 00:53:26;;;;;;;;;;;7.40;99.90;7.90;99773.00;;;;345458;28;83558;-88
2021/11/23 00:53:39;;;;;;;;;;;7.40;99.90;7.90;99762.00;;;;343969;28;90569;-87
2021/11/23 00:53:52;;;;;;;;;;;7.40;99.90;7.80;99772.00;;;;345265;28;83530;-88
2021/11/23 00:54:04;;;;;;;;;;;7.40;99.90;7.90;99764.00;;;;345692;28;92568;-88
2021/11/23 00:54:16;;;;;;;;;;;7.40;99.90;7.80;99769.00;;;;347371;28;83261;-88
2021/11/23 00:54:28;;;;;;;;;;;7.40;99.90;7.80;99765.00;;;;342857;28;91365;-87
2021/11/23 00:54:39;;;;;;;;;;;7.40;99.90;7.80;99764.00;;;;345712;28;83329;-87
2021/11/23 00:54:51;;;;;;;;;;;7.40;99.90;7.80;99769.00;;;;345481;28;89637;-88
2021/11/23 00:55:04;;;;;;;;;;;7.40;99.90;7.70;99767.00;;;;347308;28;82488;-87
2021/11/23 00:55:16;;;;;;;;;;;7.30;99.90;7.80;99775.00;;;;345655;28;89179;-87
2021/11/23 00:55:29;;;;;;;;;;;7.30;99.90;7.90;99771.00;;;;344525;28;83478;-88
2021/11/23 00:55:40;;;;;;;;;;;7.40;99.90;7.90;99773.00;;;;347003;28;91355;-88
2021/11/23 00:55:52;;;;;;;;;;;7.30;99.90;7.90;99767.00;;;;346161;28;82479;-88
2021/11/23 00:56:04;;;;;;;;;;;7.30;99.90;7.80;99767.00;;;;343932;28;90988;-88
2021/11/23 00:56:16;;;;;;;;;;;7.30;99.90;7.80;99772.00;;;;347143;28;83481;-87
2021/11/23 00:56:28;;;;;;;;;;;7.40;99.90;7.80;99768.00;;;;345613;28;90755;-87
2021/11/23 00:56:40;;;;;;;;;;;7.30;99.90;7.90;99764.00;;;;344486;28;83501;-87
2021/11/23 00:56:51;;;;;;;;;;;7.30;99.90;7.90;99772.00;;;;346077;28;90236;-88
2021/11/23 00:57:03;;;;;;;;;;;7.30;99.90;7.90;99771.00;;;;342161;28;82460;-87
2021/11/23 00:57:15;;;;;;;;;;;7.40;99.90;7.90;99775.00;;;;348376;27;92007;-87
2021/11/23 00:57:27;;;;;;;;;;;7.40;99.90;7.90;99769.00;;;;347363;28;83353;-87
2021/11/23 00:57:39;;;;;;;;;;;7.30;99.90;7.90;99769.00;;;;342937;28;88753;-88
2021/11/23 00:57:51;;;;;;;;;;;7.40;99.90;7.80;99776.00;;;;345933;28;83398;-87
2021/11/23 00:58:02;;;;;;;;;;;7.40;99.90;7.80;99778.00;;;;345619;28;89704;-87
2021/11/23 00:58:14;;;;;;;;;;;7.40;99.90;7.80;99775.00;;;;344616;28;83584;-88
2021/11/23 00:58:26;;;;;;;;;;;7.30;99.90;7.80;99769.00;;;;344284;28;89285;-87
2021/11/23 00:58:38;;;;;;;;;;;7.30;99.90;7.80;99772.00;;;;347513;28;82398;-87
2021/11/23 00:58:50;;;;;;;;;;;7.30;99.90;7.80;99778.00;;;;345551;28;89401;-87
2021/11/23 00:59:02;;;;;;;;;;;7.30;99.90;7.70;99777.00;;;;345857;28;83271;-88
2021/11/23 00:59:14;;;;;;;;;;;7.30;99.90;7.80;99770.00;;;;345718;28;89389;-87
2021/11/23 00:59:26;;;;;;;;;;;7.30;99.90;7.80;99770.00;;;;344639;28;82405;-88
2021/11/23 00:59:38;;;;;;;;;;;7.30;99.90;7.80;99760.00;;;;344328;28;88153;-87
2021/11/23 00:59:50;;;;;;;;;;;7.30;99.90;7.90;99772.00;;;;345152;28;83221;-87
2021/11/23 01:00:04;;;;;;;;;;;7.30;99.90;7.80;99777.00;;;;342772;28;90326;-87
2021/11/23 01:00:16;;;;;;;;;;;7.30;99.90;7.80;99771.00;;;;347597;28;83157;-88
2021/11/23 01:00:28;;;;;;;;;;;7.30;99.90;7.70;99775.00;;;;345278;28;91801;-88
2021/11/23 01:00:39;;;;;;;;;;;7.30;99.90;7.70;99765.00;;;;344644;28;82311;-87
2021/11/23 01:00:51;;;;;;;;;;;7.30;99.90;7.70;99778.00;;;;345583;28;88535;-88
2021/11/23 01:01:03;;;;;;;;;;;7.30;99.90;7.80;99776.00;;;;346112;28;82405;-88
2021/11/23 01:01:16;;;;;;;;;;;7.30;99.90;7.80;99776.00;;;;347033;28;88500;-88
2021/11/23 01:01:28;;;;;;;;;;;7.30;99.90;7.90;99772.00;;;;343242;28;82389;-87
2021/11/23 01:01:40;;;;;;;;;;;7.30;99.90;7.90;99775.00;;;;345317;28;89951;-87
2021/11/23 01:01:52;;;;;;;;;;;7.30;99.90;7.80;99773.00;;;;347205;28;82580;-87
2021/11/23 01:02:04;;;;;;;;;;;7.30;99.90;7.90;99763.00;;;;345220;28;89188;-87